Time;durP1;ratioP1;P1;durP2;ratioP2;P2;SDS_P1;SDS_P2;PMS_P1;PMS_P2;Temp;Humidity;BMP_temperature;BMP_pressure;BME280_temperature;BME280_humidity;BME280_pressure;Samples;Min_cycle;Max_cycle;Signal;HPM_P1;HPM_P2
2023/12/30 00:01:46;;;;;;;1.67;1.00;;;;;;;-145.69;51.17;52244.38;5113702;28;20201;-78
2023/12/30 00:04:13;;;;;;;1.23;0.87;;;;;;;-145.69;51.24;52244.38;5116424;28;20194;-78
2023/12/30 00:06:40;;;;;;;2.50;0.90;;;;;;;-145.69;50.59;52246.34;5116395;28;20593;-78
2023/12/30 00:09:06;;;;;;;1.43;1.13;;;;;;;-145.69;51.19;52252.28;5116412;28;20201;-78
2023/12/30 00:11:33;;;;;;;5.60;1.00;;;;;;;-145.69;50.68;52226.53;5116722;28;20262;-79
2023/12/30 00:14:01;;;;;;;1.33;1.00;;;;;;;-145.69;50.77;52222.59;5116530;28;20214;-80
2023/12/30 00:16:28;;;;;;;1.27;1.03;;;;;;;-145.69;50.88;52226.53;5115457;28;20755;-78
2023/12/30 00:18:54;;;;;;;1.67;0.90;;;;;;;-145.69;50.70;52260.22;5116297;28;20228;-78
2023/12/30 00:21:21;;;;;;;1.37;0.90;;;;;;;-145.69;50.82;52210.72;5116214;27;20263;-79
2023/12/30 00:23:48;;;;;;;1.20;1.10;;;;;;;-145.69;50.73;52262.19;5116042;28;20205;-78
2023/12/30 00:26:21;;;;;;;1.47;1.10;;;;;;;-145.69;50.72;52234.47;5116308;28;20201;-78
2023/12/30 00:28:48;;;;;;;1.60;1.40;;;;;;;-145.69;50.64;52289.91;5116178;28;20610;-79
2023/12/30 00:31:23;;;;;;;1.97;1.00;;;;;;;-145.69;50.94;52258.22;5116134;28;20208;-79
2023/12/30 00:33:50;;;;;;;1.10;1.00;;;;;;;-145.69;51.22;52238.44;5115816;28;20200;-79
2023/12/30 00:36:16;;;;;;;1.20;1.10;;;;;;;-145.69;51.05;52266.16;5115746;28;20340;-79
2023/12/30 00:38:42;;;;;;;2.40;1.00;;;;;;;-145.69;51.06;52254.28;5115734;28;20228;-79
2023/12/30 00:41:09;;;;;;;3.60;1.13;;;;;;;-145.69;51.33;52232.50;5115928;28;20193;-79
2023/12/30 00:43:37;;;;;;;2.40;1.17;;;;;;;-145.69;51.47;52246.34;5115930;28;20197;-78
2023/12/30 00:46:03;;;;;;;1.67;1.00;;;;;;;-145.69;51.53;52238.44;5115723;28;20214;-79
2023/12/30 00:48:31;;;;;;;1.87;1.10;;;;;;;-145.69;51.66;52252.28;5115642;28;20205;-79
2023/12/30 00:50:57;;;;;;;2.47;1.20;;;;;;;-145.69;51.35;52230.50;5115596;28;20204;-78
2023/12/30 00:53:24;;;;;;;2.50;1.10;;;;;;;-145.69;51.60;52238.44;5115364;27;20674;-77
2023/12/30 00:55:50;;;;;;;1.47;1.10;;;;;;;-145.69;52.18;52230.50;5115684;27;20201;-77
2023/12/30 00:58:17;;;;;;;1.17;1.00;;;;;;;-145.69;52.44;52262.19;5115483;28;20229;-78
2023/12/30 01:00:44;;;;;;;0.77;0.77;;;;;;;-145.69;51.50;52244.38;5115404;28;20679;-78
2023/12/30 01:03:10;;;;;;;1.53;1.13;;;;;;;-145.69;51.32;52230.50;5115145;28;20201;-78
2023/12/30 01:05:38;;;;;;;1.90;1.30;;;;;;;-145.69;51.90;52252.28;5115226;28;20537;-78
2023/12/30 01:08:05;;;;;;;2.47;1.07;;;;;;;-145.69;51.48;52256.25;5114960;28;20648;-78
2023/12/30 01:10:31;;;;;;;3.23;0.93;;;;;;;-145.69;51.48;52246.34;5115168;28;20200;-78
2023/12/30 01:12:58;;;;;;;1.20;1.10;;;;;;;-145.69;51.71;52250.31;5115247;28;20292;-78
2023/12/30 01:15:24;;;;;;;2.17;1.20;;;;;;;-145.69;51.67;52258.22;5114045;27;20204;-77
2023/12/30 01:17:51;;;;;;;4.07;1.30;;;;;;;-145.69;52.04;52262.19;5114209;28;20197;-78
2023/12/30 01:20:17;;;;;;;1.20;1.10;;;;;;;-145.69;51.39;52260.22;5114145;28;20315;-77
2023/12/30 01:22:45;;;;;;;2.30;1.10;;;;;;;-145.69;51.73;52270.13;5115030;27;20193;-77
2023/12/30 01:25:11;;;;;;;1.37;1.03;;;;;;;-145.69;51.66;52270.13;5114975;27;20197;-77
2023/12/30 01:27:38;;;;;;;1.37;1.03;;;;;;;-145.69;52.04;52248.34;5115403;28;20259;-77
2023/12/30 01:30:06;;;;;;;0.90;0.90;;;;;;;-145.69;52.08;52220.59;5114935;28;20202;-77
2023/12/30 01:32:32;;;;;;;1.03;0.93;;;;;;;-145.69;52.00;52250.31;5114443;28;20228;-78
2023/12/30 01:34:59;;;;;;;1.03;1.00;;;;;;;-145.69;51.58;52285.97;5114921;28;20201;-77
2023/12/30 01:37:25;;;;;;;1.40;0.90;;;;;;;-145.69;50.83;52222.59;5097954;28;20248;-78
2023/12/30 01:39:53;;;;;;;1.60;1.27;;;;;;;-145.69;50.55;52230.50;5094333;28;20252;-77
2023/12/30 01:42:20;;;;;;;2.80;1.30;;;;;;;-145.69;51.00;52260.22;5094076;28;20611;-77
2023/12/30 01:44:46;;;;;;;1.83;1.10;;;;;;;-145.69;50.92;52236.44;5094210;28;20206;-78
2023/12/30 01:47:13;;;;;;;2.27;1.20;;;;;;;-145.69;50.50;52234.47;5093886;28;20198;-77
2023/12/30 01:49:40;;;;;;;1.30;1.00;;;;;;;-145.69;50.30;52260.22;5094245;28;20568;-77
2023/12/30 01:52:08;;;;;;;2.07;1.10;;;;;;;-145.69;50.17;52236.44;5112102;28;20666;-77
2023/12/30 01:54:35;;;;;;;1.87;1.17;;;;;;;-145.69;50.40;52226.53;5114289;28;20278;-77
2023/12/30 01:57:04;;;;;;;3.50;1.20;;;;;;;-145.69;50.68;52216.66;5114382;28;20197;-78
2023/12/30 01:59:32;;;;;;;1.70;1.10;;;;;;;-145.69;50.19;52234.47;5113934;28;20240;-77
2023/12/30 02:02:00;;;;;;;1.77;0.90;;;;;;;-145.69;50.00;52254.28;5093883;28;20667;-78
2023/12/30 02:04:26;;;;;;;1.10;1.00;;;;;;;-145.69;49.86;52242.38;5093923;28;20205;-78
2023/12/30 02:06:53;;;;;;;3.57;1.00;;;;;;;-145.69;49.23;52264.16;5093823;28;20202;-78
2023/12/30 02:09:19;;;;;;;8.47;1.30;;;;;;;-145.69;49.38;52210.72;5093814;28;20198;-78
2023/12/30 02:11:46;;;;;;;2.10;1.10;;;;;;;-145.69;49.23;52242.38;5093664;28;20286;-78
2023/12/30 02:14:27;;;;;;;2.70;1.17;;;;;;;-145.69;48.72;52242.38;5105357;28;20682;-78
2023/12/30 02:16:53;;;;;;;1.27;1.07;;;;;;;-145.69;49.38;52240.41;5114129;28;20198;-79
2023/12/30 02:19:20;;;;;;;6.53;1.60;;;;;;;-145.69;48.99;52216.66;5114078;28;20251;-79
2023/12/30 02:21:46;;;;;;;2.10;0.90;;;;;;;-145.69;49.35;52218.63;5113024;28;20258;-79
2023/12/30 02:24:14;;;;;;;3.07;1.10;;;;;;;-145.69;49.46;52228.53;5113603;28;20243;-78
2023/12/30 02:26:41;;;;;;;2.00;0.80;;;;;;;-145.69;50.06;52262.19;5113660;28;20205;-79
2023/12/30 02:29:07;;;;;;;1.17;1.00;;;;;;;-145.69;49.91;52220.59;5112259;28;20560;-78
2023/12/30 02:31:35;;;;;;;1.30;1.10;;;;;;;-145.69;50.14;52228.53;5100773;28;20247;-79
2023/12/30 02:34:01;;;;;;;0.70;0.70;;;;;;;-145.69;49.87;52224.56;5093496;28;20202;-79
2023/12/30 02:36:28;;;;;;;2.60;1.00;;;;;;;-145.69;49.88;52226.53;5093259;28;20202;-78
2023/12/30 02:38:55;;;;;;;2.67;1.07;;;;;;;-145.69;50.92;52210.72;5093273;28;20274;-79
2023/12/30 02:41:23;;;;;;;1.73;0.87;;;;;;;-145.69;50.85;52234.47;5092772;28;20193;-78
2023/12/30 02:43:57;;;;;;;4.00;0.80;;;;;;;-145.69;50.72;52246.34;5093420;28;20200;-78
2023/12/30 02:46:24;;;;;;;4.17;0.90;;;;;;;-145.69;51.26;52238.44;5092865;28;20271;-79
2023/12/30 02:48:50;;;;;;;1.20;0.90;;;;;;;-145.69;50.85;52218.63;5092829;28;20210;-78
2023/12/30 02:51:16;;;;;;;2.73;0.90;;;;;;;-145.69;51.63;52242.38;5093080;28;20714;-78
2023/12/30 02:53:43;;;;;;;1.13;0.70;;;;;;;-145.69;51.34;52250.31;5092862;28;20194;-78
2023/12/30 02:56:18;;;;;;;1.80;0.82;;;;;;;-145.69;52.14;52246.34;5092505;28;20432;-80
2023/12/30 02:58:49;;;;;;;4.67;1.00;;;;;;;-145.69;51.55;52230.50;5092929;28;20687;-79
2023/12/30 03:01:15;;;;;;;4.40;0.97;;;;;;;-145.69;52.14;52246.34;5106063;28;20189;-80
2023/12/30 03:03:42;;;;;;;3.10;0.80;;;;;;;-145.69;52.45;52238.44;5113289;28;20197;-80
2023/12/30 03:06:08;;;;;;;7.23;0.97;;;;;;;-145.69;51.89;52198.81;5113208;28;20201;-80
2023/12/30 03:08:34;;;;;;;2.90;0.70;;;;;;;-145.69;51.93;52226.53;5113160;28;20231;-79
2023/12/30 03:11:03;;;;;;;2.47;0.97;;;;;;;-145.69;51.58;52226.53;5112989;28;20709;-79
2023/12/30 03:13:29;;;;;;;0.70;0.70;;;;;;;-145.69;51.57;52242.38;5113243;28;20731;-78
2023/12/30 03:15:57;;;;;;;1.63;0.53;;;;;;;-145.69;52.11;52244.38;5113337;28;20246;-78
2023/12/30 03:18:23;;;;;;;2.00;0.80;;;;;;;-145.69;52.59;52242.38;5112504;28;20259;-79
2023/12/30 03:20:50;;;;;;;1.70;0.90;;;;;;;-145.69;52.50;52234.47;5112855;28;20228;-79
2023/12/30 03:23:15;;;;;;;3.63;0.90;;;;;;;-145.69;52.16;52218.63;5113401;28;20609;-79
2023/12/30 03:25:42;;;;;;;2.00;0.80;;;;;;;-145.69;53.01;52220.59;5113276;28;20197;-78
2023/12/30 03:28:08;;;;;;;2.73;0.80;;;;;;;-145.69;52.24;52258.22;5113279;28;20205;-79
2023/12/30 03:30:36;;;;;;;6.63;0.80;;;;;;;-145.69;52.72;52192.88;5101062;28;20606;-78
2023/12/30 03:33:04;;;;;;;4.43;1.07;;;;;;;-145.69;52.51;52222.59;5092666;28;20202;-79
2023/12/30 03:35:32;;;;;;;4.10;0.90;;;;;;;-145.69;52.81;52238.44;5092613;28;20201;-79
2023/12/30 03:37:58;;;;;;;2.63;0.60;;;;;;;-145.69;53.33;52234.47;5113186;28;20201;-80
2023/12/30 03:40:24;;;;;;;2.03;0.67;;;;;;;-145.69;53.04;52230.50;5117112;28;20629;-78
2023/12/30 03:42:51;;;;;;;3.67;0.80;;;;;;;-145.69;52.45;52206.75;5117095;28;20201;-79
2023/12/30 03:45:17;;;;;;;1.57;0.60;;;;;;;-145.69;53.31;52234.47;5116918;28;20200;-79
2023/12/30 03:47:44;;;;;;;4.47;0.80;;;;;;;-145.69;52.97;52210.72;5116556;28;20201;-79
2023/12/30 03:50:11;;;;;;;3.13;0.77;;;;;;;-145.69;52.82;52208.72;5116648;28;20279;-79
2023/12/30 03:52:38;;;;;;;3.40;0.80;;;;;;;-145.69;53.47;52216.66;5116968;28;20205;-78
2023/12/30 03:55:05;;;;;;;5.37;0.90;;;;;;;-145.69;53.83;52234.47;5116601;28;20233;-79
2023/12/30 03:57:31;;;;;;;1.73;0.80;;;;;;;-145.69;53.57;52200.81;5116640;28;20651;-79
2023/12/30 03:59:58;;;;;;;1.30;0.70;;;;;;;-145.69;53.50;52214.66;5116644;27;20236;-78
2023/12/30 04:02:24;;;;;;;2.90;1.00;;;;;;;-145.69;53.60;52214.66;5116460;28;20194;-79
2023/12/30 04:04:50;;;;;;;1.10;0.80;;;;;;;-145.69;53.92;52222.59;5115966;28;20205;-79
2023/12/30 04:07:18;;;;;;;3.73;0.60;;;;;;;-145.69;53.70;52198.81;5116237;28;20202;-79
2023/12/30 04:09:45;;;;;;;2.00;0.70;;;;;;;-145.69;53.68;52228.53;5116567;28;20201;-79
2023/12/30 04:12:11;;;;;;;1.03;0.73;;;;;;;-145.69;53.65;52186.94;5116446;28;20602;-79
2023/12/30 04:14:37;;;;;;;2.07;0.80;;;;;;;-145.69;53.16;52220.59;5116386;28;20261;-80
2023/12/30 04:17:04;;;;;;;4.50;1.00;;;;;;;-145.69;53.75;52254.28;5116093;28;20593;-78
2023/12/30 04:19:30;;;;;;;1.27;0.63;;;;;;;-145.69;53.86;52216.66;5116108;28;20217;-78
2023/12/30 04:21:57;;;;;;;1.63;0.90;;;;;;;-145.69;53.66;52234.47;5116036;28;20250;-79
2023/12/30 04:24:25;;;;;;;2.70;0.80;;;;;;;-145.69;53.91;52230.50;5116318;28;20278;-79
2023/12/30 04:26:51;;;;;;;1.10;0.87;;;;;;;-145.69;53.73;52202.78;5115909;28;20198;-78
2023/12/30 04:29:17;;;;;;;3.17;0.83;;;;;;;-145.69;53.60;52228.53;5115970;28;20716;-79
2023/12/30 04:31:44;;;;;;;5.53;1.00;;;;;;;-145.69;53.39;52240.41;5115882;27;20201;-79
2023/12/30 04:34:10;;;;;;;1.63;1.10;;;;;;;-145.69;53.93;52226.53;5115968;28;20246;-79
2023/12/30 04:36:37;;;;;;;2.20;1.00;;;;;;;-145.69;54.41;52238.44;5115805;28;20238;-79
2023/12/30 04:39:03;;;;;;;2.50;0.97;;;;;;;-145.69;53.91;52230.50;5115767;28;20720;-79
2023/12/30 04:41:31;;;;;;;1.80;0.90;;;;;;;-145.69;53.76;52204.75;5115861;28;20202;-79
2023/12/30 04:43:58;;;;;;;3.07;1.00;;;;;;;-145.69;53.70;52234.47;5115838;28;20250;-79
2023/12/30 04:46:24;;;;;;;2.40;1.07;;;;;;;-145.69;54.44;52228.53;5115816;28;20330;-78
2023/12/30 04:48:54;;;;;;;2.33;0.90;;;;;;;-145.69;54.41;52248.34;5115536;28;20197;-78
2023/12/30 04:51:20;;;;;;;6.90;1.13;;;;;;;-145.69;54.37;52210.72;5115724;28;20201;-78
2023/12/30 04:53:47;;;;;;;0.80;0.80;;;;;;;-145.69;53.96;52232.50;5115611;28;20226;-79
2023/12/30 04:56:15;;;;;;;4.63;0.80;;;;;;;-145.69;54.09;52175.06;5115503;28;20700;-78
2023/12/30 04:58:44;;;;;;;1.70;1.03;;;;;;;-145.69;53.56;52210.72;5115492;27;20206;-78
2023/12/30 05:01:11;;;;;;;1.13;0.87;;;;;;;-145.69;54.51;52214.66;5115317;28;20254;-78
2023/12/30 05:03:38;;;;;;;0.70;0.70;;;;;;;-145.69;54.16;52218.63;5115583;28;20596;-78
2023/12/30 05:06:04;;;;;;;3.27;0.97;;;;;;;-145.69;54.23;52258.22;5115104;28;20201;-78
2023/12/30 05:08:32;;;;;;;0.87;0.87;;;;;;;-145.69;54.25;52224.56;5115321;28;20251;-78
2023/12/30 05:10:58;;;;;;;1.03;0.83;;;;;;;-145.69;54.35;52272.09;5114511;28;20194;-79
2023/12/30 05:13:26;;;;;;;2.27;0.80;;;;;;;-145.69;54.26;52236.44;5115137;28;20701;-78
2023/12/30 05:15:54;;;;;;;3.97;1.07;;;;;;;-145.69;54.08;52262.19;5115333;28;20208;-78
2023/12/30 05:18:21;;;;;;;3.27;0.93;;;;;;;-145.69;54.39;52192.88;5114688;28;20201;-79
2023/12/30 05:20:47;;;;;;;2.60;0.90;;;;;;;-145.69;54.34;52250.31;5115173;28;20253;-78
2023/12/30 05:23:14;;;;;;;1.40;0.90;;;;;;;-145.69;54.08;52254.28;5114985;28;20201;-78
2023/12/30 05:25:41;;;;;;;2.30;1.00;;;;;;;-145.69;53.98;52252.28;5111280;28;20644;-78
2023/12/30 05:28:07;;;;;;;2.13;1.00;;;;;;;-145.69;54.51;52240.41;5114515;28;20193;-79
2023/12/30 05:30:33;;;;;;;1.90;0.90;;;;;;;-145.69;54.46;52250.31;5115079;28;20209;-80
2023/12/30 05:33:01;;;;;;;1.23;1.03;;;;;;;-145.69;54.02;52204.75;5114823;28;20202;-79
2023/12/30 05:35:28;;;;;;;3.37;1.03;;;;;;;-145.69;54.46;52220.59;5114860;28;20198;-78
2023/12/30 05:37:54;;;;;;;1.10;1.00;;;;;;;-145.69;54.14;52242.38;5114585;28;20194;-79
2023/12/30 05:40:20;;;;;;;4.50;1.07;;;;;;;-145.69;53.66;52248.34;5114539;28;20286;-79
2023/12/30 05:42:47;;;;;;;1.93;0.97;;;;;;;-145.69;53.63;52232.50;5114208;28;20201;-79
2023/12/30 05:45:13;;;;;;;2.07;0.93;;;;;;;-145.69;53.60;52226.53;5114782;27;20258;-79
2023/12/30 05:47:40;;;;;;;2.73;1.07;;;;;;;-145.69;54.29;52226.53;5114391;28;20648;-78
2023/12/30 05:50:08;;;;;;;1.20;1.00;;;;;;;-145.69;54.28;52202.78;5114511;28;20201;-78
2023/12/30 05:52:35;;;;;;;2.17;0.90;;;;;;;-145.69;55.19;52198.81;5114400;28;20623;-78
2023/12/30 05:55:01;;;;;;;3.03;1.07;;;;;;;-145.69;55.09;52208.72;5113616;28;20230;-79
2023/12/30 05:57:28;;;;;;;3.00;0.88;;;;;;;-145.69;56.26;52214.66;5113848;28;20782;-79
2023/12/30 05:59:54;;;;;;;2.37;1.10;;;;;;;-145.69;55.62;52250.31;5096827;27;20687;-78
2023/12/30 06:02:22;;;;;;;3.23;0.87;;;;;;;-145.69;56.20;52232.50;5094044;28;20217;-78
2023/12/30 06:04:48;;;;;;;1.43;0.87;;;;;;;-145.69;56.24;52198.81;5093920;28;20202;-78
2023/12/30 06:07:16;;;;;;;3.33;0.73;;;;;;;-145.69;56.57;52246.34;5105132;28;20193;-78
2023/12/30 06:09:42;;;;;;;3.00;0.93;;;;;;;-145.69;56.77;52248.34;5113794;28;20590;-78
2023/12/30 06:12:09;;;;;;;1.43;1.20;;;;;;;-145.69;56.77;52228.53;5113951;28;20198;-77
2023/12/30 06:14:36;;;;;;;1.60;1.10;;;;;;;-145.69;57.37;52230.50;5113814;28;20194;-77
2023/12/30 06:17:02;;;;;;;1.13;1.03;;;;;;;-145.69;57.30;52226.53;5114084;28;20198;-77
2023/12/30 06:19:29;;;;;;;3.67;1.03;;;;;;;-145.69;57.81;52252.28;5113960;28;20254;-77
2023/12/30 06:21:56;;;;;;;1.63;1.20;;;;;;;-145.69;57.88;52250.31;5113986;28;20197;-77
2023/12/30 06:24:26;;;;;;;1.00;0.90;;;;;;;-145.69;57.36;52230.50;5113322;28;20736;-77
2023/12/30 06:26:54;;;;;;;1.77;0.80;;;;;;;-145.69;57.93;52214.66;5113996;28;20245;-78
2023/12/30 06:29:20;;;;;;;4.73;1.10;;;;;;;-145.69;57.85;52246.34;5113504;28;20198;-77
2023/12/30 06:31:47;;;;;;;3.07;1.10;;;;;;;-145.69;59.16;52228.53;5113825;28;20201;-78
2023/12/30 06:34:13;;;;;;;1.13;1.03;;;;;;;-145.69;59.11;52230.50;5113740;28;20598;-79
2023/12/30 06:36:41;;;;;;;1.23;0.97;;;;;;;-145.69;58.72;52226.53;5100731;28;20250;-78
2023/12/30 06:39:08;;;;;;;3.40;1.40;;;;;;;-145.69;58.70;52260.22;5113714;28;20194;-77
2023/12/30 06:41:36;;;;;;;1.20;1.10;;;;;;;-145.69;58.62;52206.75;5113474;28;20236;-78
2023/12/30 06:44:02;;;;;;;1.00;0.87;;;;;;;-145.69;59.26;52234.47;5113401;28;20197;-79
2023/12/30 06:46:29;;;;;;;4.50;1.23;;;;;;;-145.69;59.16;52240.41;5113669;28;20204;-79
2023/12/30 06:48:55;;;;;;;1.70;0.90;;;;;;;-145.69;58.68;52238.44;5113622;28;20205;-78
2023/12/30 06:51:21;;;;;;;1.20;0.90;;;;;;;-145.69;59.11;52216.66;5113363;28;20201;-77
2023/12/30 06:53:48;;;;;;;2.60;1.23;;;;;;;-145.69;58.96;52262.19;5113589;28;20229;-77
2023/12/30 06:56:15;;;;;;;1.83;1.20;;;;;;;-145.69;59.16;52228.53;5113436;28;20200;-77
2023/12/30 06:58:45;;;;;;;0.80;0.67;;;;;;;-145.69;58.83;52234.47;5113142;28;20189;-79
2023/12/30 07:01:11;;;;;;;1.83;1.00;;;;;;;-145.69;58.82;52230.50;5113394;28;20221;-79
2023/12/30 07:03:38;;;;;;;3.73;0.90;;;;;;;-145.69;58.57;52252.28;5113352;28;20576;-78
2023/12/30 07:06:05;;;;;;;3.57;0.97;;;;;;;-145.69;58.22;52216.66;5113307;28;20205;-78
2023/12/30 07:08:31;;;;;;;1.00;0.87;;;;;;;-145.69;58.63;52234.47;5113504;28;20246;-78
2023/12/30 07:10:58;;;;;;;2.47;1.20;;;;;;;-145.69;58.49;52264.16;5114528;28;20254;-78
2023/12/30 07:13:24;;;;;;;1.70;1.00;;;;;;;-145.69;58.73;52234.47;5116802;28;20197;-79
2023/12/30 07:15:52;;;;;;;2.00;1.00;;;;;;;-145.69;58.42;52218.63;5114405;28;20247;-79
2023/12/30 07:18:18;;;;;;;2.27;1.20;;;;;;;-145.69;58.95;52218.63;5117365;28;20292;-79
2023/12/30 07:20:45;;;;;;;2.83;1.33;;;;;;;-145.69;58.94;52254.28;5117623;28;20220;-78
2023/12/30 07:23:12;;;;;;;2.50;1.07;;;;;;;-145.69;58.95;52226.53;5117359;28;20197;-79
2023/12/30 07:25:39;;;;;;;2.73;1.20;;;;;;;-145.69;58.91;52230.50;5116639;28;20204;-79
2023/12/30 07:28:06;;;;;;;1.37;1.07;;;;;;;-145.69;59.00;52230.50;5116889;28;20197;-78
2023/12/30 07:30:32;;;;;;;5.17;1.10;;;;;;;-145.69;59.23;52234.47;5117320;28;20204;-77
2023/12/30 07:33:00;;;;;;;1.03;0.90;;;;;;;-145.69;58.73;52234.47;5117132;28;20205;-78
2023/12/30 07:35:27;;;;;;;1.47;1.07;;;;;;;-145.69;58.79;52234.47;5117368;28;20201;-78
2023/12/30 07:37:54;;;;;;;2.80;0.90;;;;;;;-145.69;59.34;52222.59;5116879;28;20284;-78
2023/12/30 07:40:21;;;;;;;1.77;1.13;;;;;;;-145.69;59.64;52220.59;5117160;28;20221;-77
2023/12/30 07:42:47;;;;;;;2.83;1.13;;;;;;;-145.69;59.74;52232.50;5116728;28;20193;-78
2023/12/30 07:45:14;;;;;;;2.87;0.80;;;;;;;-145.69;59.64;52246.34;5117006;28;20201;-79
2023/12/30 07:47:40;;;;;;;2.20;0.70;;;;;;;-145.69;59.41;52240.41;5116788;28;20201;-78
2023/12/30 07:50:10;;;;;;;3.13;0.90;;;;;;;-145.69;59.41;52242.38;5116770;28;20555;-78
2023/12/30 07:52:36;;;;;;;3.50;0.90;;;;;;;-145.69;59.50;52246.34;5116861;28;20289;-78
2023/12/30 07:55:03;;;;;;;1.07;0.80;;;;;;;-145.69;59.82;52224.56;5110937;28;20590;-78
2023/12/30 07:57:30;;;;;;;0.80;0.80;;;;;;;-145.69;59.28;52256.25;5116753;28;20197;-79
2023/12/30 07:59:56;;;;;;;1.40;0.90;;;;;;;-145.69;59.16;52216.66;5116534;28;20198;-78
2023/12/30 08:02:23;;;;;;;1.50;1.03;;;;;;;-145.69;59.49;52214.66;5116645;28;20225;-78
2023/12/30 08:04:49;;;;;;;1.50;0.80;;;;;;;-145.69;59.31;52234.47;5116751;28;20205;-78
2023/12/30 08:07:17;;;;;;;2.53;1.20;;;;;;;-145.69;59.23;52260.22;5116338;28;20190;-78
2023/12/30 08:09:44;;;;;;;2.70;1.40;;;;;;;-145.69;58.57;52242.38;5116479;28;20193;-78
2023/12/30 08:12:11;;;;;;;33.23;11.80;;;;;;;-145.69;58.66;52230.50;5116003;28;20202;-78
2023/12/30 08:14:38;;;;;;;13.20;4.43;;;;;;;-145.69;58.66;52236.44;5116286;28;20208;-78
2023/12/30 08:17:04;;;;;;;2.43;1.40;;;;;;;-145.69;57.69;52246.34;5116505;28;20602;-78
2023/12/30 08:19:30;;;;;;;1.10;0.80;;;;;;;-145.69;57.71;52198.81;5116408;28;20202;-77
2023/12/30 08:21:57;;;;;;;1.73;0.90;;;;;;;-145.69;56.80;52258.22;5115888;28;20225;-78
2023/12/30 08:24:28;;;;;;;1.00;0.80;;;;;;;-145.69;56.75;52230.50;5115778;28;20193;-78
2023/12/30 08:26:54;;;;;;;16.80;6.27;;;;;;;-145.69;56.09;52198.81;5115686;28;20193;-78
2023/12/30 08:29:21;;;;;;;5.13;2.40;;;;;;;-145.69;56.47;52218.63;5115995;28;20254;-78
2023/12/30 08:31:47;;;;;;;2.35;1.40;;;;;;;-145.69;56.99;52246.34;5114794;28;20786;-78
2023/12/30 08:34:14;;;;;;;4.90;2.50;;;;;;;-145.69;55.64;52226.53;5115798;28;20200;-78
2023/12/30 08:36:42;;;;;;;1.10;1.00;;;;;;;-145.69;55.61;52224.56;5115758;28;20189;-79
2023/12/30 08:39:08;;;;;;;1.03;0.77;;;;;;;-145.69;55.49;52202.78;5115854;28;20197;-78
2023/12/30 08:41:36;;;;;;;1.47;1.20;;;;;;;-145.69;54.79;52218.63;5115388;28;20225;-79
2023/12/30 08:44:03;;;;;;;3.47;1.70;;;;;;;-145.69;54.23;52230.50;5115972;28;20197;-78
2023/12/30 08:46:29;;;;;;;1.97;1.20;;;;;;;-145.69;53.80;52234.47;5115550;28;20201;-78
2023/12/30 08:48:56;;;;;;;1.20;1.10;;;;;;;-145.69;53.68;52206.75;5115300;28;20193;-78
2023/12/30 08:51:25;;;;;;;2.40;0.90;;;;;;;-145.69;53.35;52208.72;5115649;28;20201;-78
2023/12/30 08:53:51;;;;;;;4.33;0.97;;;;;;;-145.69;54.13;52210.72;5115300;28;20237;-78
2023/12/30 08:56:18;;;;;;;1.53;1.10;;;;;;;-145.69;53.42;52210.72;5115188;28;20221;-78
2023/12/30 08:58:46;;;;;;;1.27;0.80;;;;;;;-145.69;53.35;52210.72;5115707;28;20201;-79
2023/12/30 09:01:15;;;;;;;0.70;0.67;;;;;;;-145.69;53.32;52196.84;5115246;28;20218;-79
2023/12/30 09:03:42;;;;;;;1.30;0.80;;;;;;;-145.69;53.23;52250.31;5114545;28;20463;-78
2023/12/30 09:06:08;;;;;;;1.30;0.70;;;;;;;-145.69;52.53;52175.06;5112373;28;20329;-79
2023/12/30 09:08:35;;;;;;;0.70;0.63;;;;;;;-145.69;52.53;52214.66;5115196;27;20197;-79
2023/12/30 09:11:01;;;;;;;1.20;1.00;;;;;;;-145.69;52.65;52222.59;5115016;28;20206;-79
2023/12/30 09:13:29;;;;;;;2.00;0.80;;;;;;;-145.69;52.42;52218.63;5115269;28;20197;-77
2023/12/30 09:15:57;;;;;;;1.30;1.00;;;;;;;-145.69;52.11;52171.09;5114730;28;20716;-79
2023/12/30 09:18:23;;;;;;;2.17;1.20;;;;;;;-145.69;51.73;52210.72;5114951;28;20644;-79
2023/12/30 09:20:50;;;;;;;3.90;2.50;;;;;;;-145.69;52.16;52210.72;5114871;28;20225;-78
2023/12/30 09:23:17;;;;;;;2.40;0.70;;;;;;;-145.69;51.81;52192.88;5114652;28;20200;-76
2023/12/30 09:25:43;;;;;;;1.47;1.10;;;;;;;-145.69;51.86;52196.84;5111356;28;20664;-78
2023/12/30 09:28:10;;;;;;;2.40;0.77;;;;;;;-145.69;52.25;52188.91;5114716;28;20199;-77
2023/12/30 09:30:36;;;;;;;2.30;1.80;;;;;;;-145.69;52.01;52177.03;5114267;28;20233;-77
2023/12/30 09:33:05;;;;;;;1.97;1.40;;;;;;;-145.69;52.28;52182.97;5114384;28;20201;-76
2023/12/30 09:35:32;;;;;;;1.63;1.10;;;;;;;-145.69;51.93;52226.53;5113629;28;20287;-79
2023/12/30 09:37:59;;;;;;;1.37;0.80;;;;;;;-145.69;51.44;52232.50;5114730;28;20193;-78
2023/12/30 09:40:26;;;;;;;0.70;0.70;;;;;;;-145.69;51.83;52196.84;5114483;28;20197;-78
2023/12/30 09:42:57;;;;;;;1.53;0.60;;;;;;;-145.69;51.71;52188.91;5114306;28;20229;-79
2023/12/30 09:45:24;;;;;;;3.53;0.70;;;;;;;-145.69;51.66;52149.31;5114871;28;20218;-78
2023/12/30 09:47:51;;;;;;;1.75;0.60;;;;;;;-145.69;52.07;52206.75;5113447;28;20614;-78
2023/12/30 09:50:20;;;;;;;3.20;0.70;;;;;;;-145.69;51.30;52198.81;5114160;28;20193;-78
2023/12/30 09:52:46;;;;;;;0.83;0.70;;;;;;;-145.69;51.08;52190.91;5114445;28;20201;-78
2023/12/30 09:55:13;;;;;;;1.00;0.70;;;;;;;-145.69;51.08;52190.91;5113765;28;20270;-78
2023/12/30 09:57:40;;;;;;;1.53;0.90;;;;;;;-145.69;51.52;52208.72;5114152;28;20197;-77
2023/12/30 10:00:09;;;;;;;1.00;0.53;;;;;;;-145.69;51.13;52222.59;5113818;28;20674;-79
2023/12/30 10:02:36;;;;;;;0.70;0.50;;;;;;;-145.69;50.92;52208.72;5113850;28;20217;-78
2023/12/30 10:05:05;;;;;;;0.90;0.68;;;;;;;-145.69;51.40;52218.63;5113637;28;20189;-81
2023/12/30 10:07:34;;;;;;;0.93;0.70;;;;;;;-145.69;50.76;52196.84;5113971;28;20247;-81
2023/12/30 10:10:00;;;;;;;1.05;0.57;;;;;;;-145.69;50.98;52186.94;5113997;28;20194;-80
2023/12/30 10:12:27;;;;;;;3.13;0.80;;;;;;;-145.69;51.03;52224.56;5113952;28;20659;-69
2023/12/30 10:14:53;;;;;;;1.23;0.83;;;;;;;-145.69;51.05;52202.78;5113900;28;20193;-80
2023/12/30 10:17:20;;;;;;;0.83;0.67;;;;;;;-145.69;50.92;52188.91;5113827;28;20647;-80
2023/12/30 10:19:47;;;;;;;3.80;0.85;;;;;;;-145.69;50.14;52206.75;5113868;28;20207;-79
2023/12/30 10:22:14;;;;;;;2.47;0.80;;;;;;;-145.69;49.74;52214.66;5113317;28;20230;-79
2023/12/30 10:24:42;;;;;;;1.30;0.80;;;;;;;-145.69;50.28;52169.13;5113432;28;20201;-78
2023/12/30 10:27:10;;;;;;;2.05;0.73;;;;;;;-145.69;50.11;52179.03;5113702;28;20219;-79
2023/12/30 10:29:37;;;;;;;1.88;0.80;;;;;;;-145.69;49.69;52157.25;5113650;28;20202;-79
2023/12/30 10:32:08;;;;;;;2.40;0.70;;;;;;;-145.69;49.20;52169.13;5113572;28;20254;-79
2023/12/30 10:34:39;;;;;;;2.22;0.90;;;;;;;-145.69;48.80;52188.91;5113511;28;20193;-79
2023/12/30 10:37:07;;;;;;;3.63;1.05;;;;;;;-145.69;48.30;52196.84;5113639;28;20201;-79
2023/12/30 10:39:37;;;;;;;1.15;0.93;;;;;;;-145.69;47.60;52186.94;5113447;28;20197;-79
2023/12/30 10:42:06;;;;;;;0.80;0.80;;;;;;;-145.69;47.35;52169.13;5113314;28;20229;-78
2023/12/30 10:44:32;;;;;;;1.83;0.75;;;;;;;-145.69;47.98;52224.56;5113193;28;20555;-78
2023/12/30 10:47:00;;;;;;;1.75;1.10;;;;;;;-145.69;47.83;52163.19;5113153;28;20198;-78
2023/12/30 10:49:27;;;;;;;2.20;1.05;;;;;;;-145.69;47.10;52179.03;5113382;28;20202;-78
2023/12/30 10:51:57;;;;;;;6.95;2.65;;;;;;;-145.69;46.96;52184.97;5113279;28;20193;-78
2023/12/30 10:54:33;;;;;;;4.03;0.80;;;;;;;-145.69;45.96;52165.16;5112411;28;20233;-78
2023/12/30 10:57:04;;;;;;;1.25;0.90;;;;;;;-145.69;46.42;52179.03;5113220;28;20193;-78
2023/12/30 10:59:32;;;;;;;3.20;2.00;;;;;;;-145.69;47.65;52171.09;5113444;28;20193;-78
2023/12/30 11:01:59;;;;;;;1.23;0.80;;;;;;;-145.69;47.15;52210.72;5113305;28;20228;-78
2023/12/30 11:04:29;;;;;;;0.98;0.70;;;;;;;-145.69;46.26;52151.28;5112500;28;20284;-78
2023/12/30 11:06:58;;;;;;;0.95;0.80;;;;;;;-145.69;46.76;52184.97;5113468;28;20209;-78
2023/12/30 11:09:27;;;;;;;1.33;0.98;;;;;;;-145.69;45.49;52115.66;5113003;28;20223;-78
2023/12/30 11:11:55;;;;;;;0.98;0.73;;;;;;;-145.69;45.86;52186.94;5113344;28;20225;-78
2023/12/30 11:14:23;;;;;;;2.45;0.70;;;;;;;-145.69;45.32;52179.03;5113417;28;20197;-79
2023/12/30 11:16:51;;;;;;;0.82;0.70;;;;;;;-145.69;45.44;52175.06;5112973;28;20250;-78